Time;durP1;ratioP1;P1;durP2;ratioP2;P2;SDS_P1;SDS_P2;PMS_P1;PMS_P2;Temp;Humidity;BMP_temperature;BMP_pressure;BME280_temperature;BME280_humidity;BME280_pressure;Samples;Min_cycle;Max_cycle;Signal;HPM_P1;HPM_P2
2023/05/16 00:02:04;;;;;;;199.57;11.23;;;;;;;;;;4980176;28;20352;-54
2023/05/16 00:04:31;;;;;;;259.52;12.57;;;;;;;;;;4980545;28;20287;-55
2023/05/16 00:06:57;;;;;;;217.15;11.75;;;;;;;;;;4978900;28;20078;-54
2023/05/16 00:09:22;;;;;;;275.38;13.63;;;;;;;;;;4982380;28;20118;-51
2023/05/16 00:11:47;;;;;;;334.98;15.00;;;;;;;;;;4982311;28;20033;-53
2023/05/16 00:14:13;;;;;;;254.47;12.43;;;;;;;;;;4983508;28;21078;-52
2023/05/16 00:16:40;;;;;;;248.45;12.80;;;;;;;;;;4983771;28;20269;-51
2023/05/16 00:19:06;;;;;;;273.55;13.43;;;;;;;;;;4981436;28;20014;-53
2023/05/16 00:21:31;;;;;;;273.40;13.35;;;;;;;;;;4978115;28;20027;-52
2023/05/16 00:23:56;;;;;;;296.27;14.25;;;;;;;;;;4980026;28;20030;-55
2023/05/16 00:26:22;;;;;;;241.27;12.60;;;;;;;;;;4980541;28;20557;-54
2023/05/16 00:28:47;;;;;;;170.43;10.27;;;;;;;;;;4981037;28;20748;-54
2023/05/16 00:31:12;;;;;;;185.27;11.10;;;;;;;;;;4979636;28;20032;-54
2023/05/16 00:33:37;;;;;;;200.30;10.70;;;;;;;;;;4980334;28;20832;-52
2023/05/16 00:36:03;;;;;;;206.20;11.07;;;;;;;;;;4980691;28;20859;-52
2023/05/16 00:38:28;;;;;;;183.85;10.60;;;;;;;;;;4981458;28;20639;-52
2023/05/16 00:40:53;;;;;;;174.45;10.73;;;;;;;;;;4979592;28;20766;-51
2023/05/16 00:43:18;;;;;;;242.77;12.60;;;;;;;;;;4981175;28;20095;-54
2023/05/16 00:45:44;;;;;;;266.75;13.00;;;;;;;;;;4979023;28;20039;-51
2023/05/16 00:48:11;;;;;;;251.63;12.73;;;;;;;;;;4981120;28;20906;-53
2023/05/16 00:50:36;;;;;;;286.42;14.15;;;;;;;;;;4979396;28;21052;-52
2023/05/16 00:53:02;;;;;;;274.10;13.50;;;;;;;;;;4978872;28;20084;-54
2023/05/16 00:55:27;;;;;;;259.63;13.30;;;;;;;;;;4980335;28;20113;-51
2023/05/16 00:57:52;;;;;;;257.27;13.13;;;;;;;;;;4980196;28;20561;-51
2023/05/16 01:00:18;;;;;;;246.80;13.13;;;;;;;;;;4980991;28;20810;-51
2023/05/16 01:02:44;;;;;;;253.93;13.55;;;;;;;;;;4980062;28;20345;-51
2023/05/16 01:05:10;;;;;;;234.13;12.13;;;;;;;;;;4979508;28;20034;-52
2023/05/16 01:07:35;;;;;;;215.00;12.23;;;;;;;;;;4980952;28;20076;-51
2023/05/16 01:10:01;;;;;;;212.70;12.13;;;;;;;;;;4980584;28;20080;-52
2023/05/16 01:12:32;;;;;;;176.63;10.80;;;;;;;;;;4981403;28;20412;-54
2023/05/16 01:15:04;;;;;;;175.18;11.02;;;;;;;;;;4977644;28;20105;-53
2023/05/16 01:17:44;;;;;;;293.58;14.43;;;;;;;;;;4980573;28;20133;-53
2023/05/16 01:20:13;;;;;;;263.40;13.52;;;;;;;;;;4980641;28;20026;-55
2023/05/16 01:22:46;;;;;;;210.77;11.77;;;;;;;;;;4979799;28;20873;-54
2023/05/16 01:25:30;;;;;;;213.35;12.38;;;;;;;;;;4978414;28;20026;-52
2023/05/16 01:27:56;;;;;;;207.40;11.65;;;;;;;;;;4980097;28;20039;-53
2023/05/16 01:30:21;;;;;;;258.75;13.07;;;;;;;;;;4978398;28;20541;-52
2023/05/16 01:32:46;;;;;;;244.57;12.87;;;;;;;;;;4979177;28;20858;-52
2023/05/16 01:35:13;;;;;;;279.93;13.13;;;;;;;;;;4980538;28;20674;-53
2023/05/16 01:37:58;;;;;;;286.70;13.43;;;;;;;;;;4980714;28;20258;-53
2023/05/16 01:40:30;;;;;;;438.52;18.45;;;;;;;;;;4977848;28;20093;-54
2023/05/16 01:42:58;;;;;;;178.47;10.13;;;;;;;;;;4981160;28;20026;-53
2023/05/16 01:45:30;;;;;;;147.65;10.07;;;;;;;;;;4979708;28;20026;-53
2023/05/16 01:48:07;;;;;;;244.00;12.50;;;;;;;;;;4980313;28;20469;-53
2023/05/16 01:50:34;;;;;;;263.08;13.25;;;;;;;;;;4979165;28;20065;-51
2023/05/16 01:53:05;;;;;;;235.13;12.43;;;;;;;;;;4978819;28;20147;-52
2023/05/16 01:55:43;;;;;;;260.77;12.73;;;;;;;;;;4978770;28;20034;-52
2023/05/16 01:58:09;;;;;;;214.85;11.30;;;;;;;;;;4980021;28;20026;-54
2023/05/16 02:00:34;;;;;;;192.65;11.00;;;;;;;;;;4979497;28;20034;-53
2023/05/16 02:02:59;;;;;;;205.80;11.43;;;;;;;;;;4979528;28;20615;-52
2023/05/16 02:05:25;;;;;;;181.70;10.97;;;;;;;;;;4977699;28;20034;-51
2023/05/16 02:07:50;;;;;;;221.88;11.93;;;;;;;;;;4980023;28;20260;-54
2023/05/16 02:10:15;;;;;;;282.88;14.02;;;;;;;;;;4977074;28;20118;-54
2023/05/16 02:12:41;;;;;;;257.57;13.37;;;;;;;;;;4965905;28;20547;-55
2023/05/16 02:15:06;;;;;;;262.98;13.40;;;;;;;;;;4978934;28;20767;-55
2023/05/16 02:17:32;;;;;;;268.70;13.75;;;;;;;;;;4978791;28;20052;-53
2023/05/16 02:19:57;;;;;;;236.07;12.60;;;;;;;;;;4979601;28;20103;-53
2023/05/16 02:22:22;;;;;;;224.73;12.20;;;;;;;;;;4978186;28;20038;-55
2023/05/16 02:24:47;;;;;;;197.38;10.90;;;;;;;;;;4980152;28;20458;-53
2023/05/16 02:27:12;;;;;;;177.90;10.97;;;;;;;;;;4981898;28;20096;-52
2023/05/16 02:29:38;;;;;;;221.10;12.03;;;;;;;;;;4979304;28;20335;-52
2023/05/16 02:32:03;;;;;;;174.23;10.48;;;;;;;;;;4979346;28;20277;-54
2023/05/16 02:34:28;;;;;;;179.00;10.98;;;;;;;;;;4979558;28;20023;-53
2023/05/16 02:36:54;;;;;;;207.73;12.07;;;;;;;;;;4980890;28;20034;-54
2023/05/16 02:39:19;;;;;;;202.50;11.53;;;;;;;;;;4984093;28;20249;-52
2023/05/16 02:41:44;;;;;;;298.17;14.35;;;;;;;;;;4980957;28;20261;-53
2023/05/16 02:44:09;;;;;;;257.95;13.35;;;;;;;;;;4982896;28;20538;-53
2023/05/16 02:46:35;;;;;;;288.15;14.27;;;;;;;;;;4981916;28;20031;-55
2023/05/16 02:49:01;;;;;;;257.85;12.95;;;;;;;;;;4982043;28;20575;-53
2023/05/16 02:51:26;;;;;;;257.45;13.25;;;;;;;;;;4982517;28;20125;-56
2023/05/16 02:53:52;;;;;;;287.35;14.55;;;;;;;;;;4980896;28;20559;-56
2023/05/16 02:56:17;;;;;;;210.18;11.60;;;;;;;;;;4982136;28;20447;-52
2023/05/16 02:58:45;;;;;;;219.23;11.40;;;;;;;;;;4981695;28;20380;-52
2023/05/16 03:01:11;;;;;;;248.15;12.35;;;;;;;;;;4980700;28;20755;-55
2023/05/16 03:03:36;;;;;;;200.90;11.47;;;;;;;;;;4982464;28;20037;-52
2023/05/16 03:06:02;;;;;;;192.57;11.27;;;;;;;;;;4981689;28;20425;-55
2023/05/16 03:08:27;;;;;;;219.57;12.52;;;;;;;;;;4981977;28;20022;-54
2023/05/16 03:10:52;;;;;;;166.23;10.93;;;;;;;;;;4982147;28;20129;-53
2023/05/16 03:13:17;;;;;;;206.77;11.65;;;;;;;;;;4980165;28;20273;-52
2023/05/16 03:15:43;;;;;;;224.70;12.23;;;;;;;;;;4981258;28;20042;-52
2023/05/16 03:18:08;;;;;;;260.25;13.30;;;;;;;;;;4981863;28;20250;-52
2023/05/16 03:20:33;;;;;;;313.73;14.63;;;;;;;;;;4980629;28;20107;-54
2023/05/16 03:22:58;;;;;;;255.40;13.38;;;;;;;;;;4982619;28;20317;-55
2023/05/16 03:25:24;;;;;;;281.77;14.13;;;;;;;;;;4981082;28;20192;-55
2023/05/16 03:27:49;;;;;;;242.18;12.43;;;;;;;;;;4981926;28;20270;-52
2023/05/16 03:30:15;;;;;;;242.98;12.63;;;;;;;;;;4980435;28;20025;-56
2023/05/16 03:32:40;;;;;;;255.70;12.57;;;;;;;;;;4980232;28;20061;-53
2023/05/16 03:35:05;;;;;;;250.32;12.25;;;;;;;;;;4982038;28;20022;-56
2023/05/16 03:37:31;;;;;;;226.77;12.18;;;;;;;;;;4982819;28;20586;-52
2023/05/16 03:39:56;;;;;;;225.63;12.38;;;;;;;;;;4982659;28;20117;-55
2023/05/16 03:42:21;;;;;;;203.30;11.75;;;;;;;;;;4981830;28;20060;-52
2023/05/16 03:44:46;;;;;;;173.73;11.02;;;;;;;;;;4982466;28;21059;-52
2023/05/16 03:47:12;;;;;;;218.60;11.45;;;;;;;;;;4980318;28;20041;-54
2023/05/16 03:49:37;;;;;;;174.73;9.82;;;;;;;;;;4982377;28;20030;-53
2023/05/16 03:52:03;;;;;;;258.50;12.30;;;;;;;;;;4978475;28;20620;-54
2023/05/16 03:54:28;;;;;;;268.92;12.85;;;;;;;;;;4980016;28;20037;-52
2023/05/16 03:56:54;;;;;;;224.23;11.80;;;;;;;;;;4982537;28;20030;-53
2023/05/16 03:59:19;;;;;;;279.27;13.52;;;;;;;;;;4981930;28;20273;-54
2023/05/16 04:01:44;;;;;;;286.88;13.80;;;;;;;;;;4979738;28;20122;-54
2023/05/16 04:04:09;;;;;;;260.33;13.47;;;;;;;;;;4980849;28;20498;-51
2023/05/16 04:06:35;;;;;;;270.02;13.27;;;;;;;;;;4981653;28;20682;-55
2023/05/16 04:09:00;;;;;;;237.27;11.85;;;;;;;;;;4981104;28;20038;-55
2023/05/16 04:11:25;;;;;;;191.67;10.97;;;;;;;;;;4980941;28;20030;-54
2023/05/16 04:13:52;;;;;;;268.15;13.68;;;;;;;;;;4980455;28;20254;-52
2023/05/16 04:16:17;;;;;;;173.40;10.88;;;;;;;;;;4980799;28;21067;-54
2023/05/16 04:18:43;;;;;;;164.90;11.32;;;;;;;;;;4981818;28;20578;-54
2023/05/16 04:21:10;;;;;;;185.87;11.60;;;;;;;;;;4979662;28;20045;-53
2023/05/16 04:23:35;;;;;;;202.80;11.90;;;;;;;;;;4980625;28;20269;-54
2023/05/16 04:26:00;;;;;;;223.67;11.67;;;;;;;;;;4979638;28;20617;-54
2023/05/16 04:28:26;;;;;;;191.43;10.75;;;;;;;;;;4982245;28;20490;-54
2023/05/16 04:30:51;;;;;;;228.73;11.88;;;;;;;;;;4978779;28;20102;-53
2023/05/16 04:33:17;;;;;;;251.10;12.38;;;;;;;;;;4981027;28;20030;-54
2023/05/16 04:35:42;;;;;;;298.15;13.90;;;;;;;;;;4979754;28;20034;-53
2023/05/16 04:38:08;;;;;;;294.98;13.95;;;;;;;;;;4981931;28;20022;-56
2023/05/16 04:40:34;;;;;;;252.95;12.73;;;;;;;;;;4982179;28;20027;-55
2023/05/16 04:42:59;;;;;;;249.25;12.80;;;;;;;;;;4980270;28;20041;-54
2023/05/16 04:45:24;;;;;;;275.08;13.73;;;;;;;;;;4978699;28;20122;-52
2023/05/16 04:47:50;;;;;;;199.25;11.27;;;;;;;;;;4981610;28;20225;-51
2023/05/16 04:50:16;;;;;;;193.30;11.15;;;;;;;;;;4981208;28;20115;-55
2023/05/16 04:52:42;;;;;;;198.98;12.25;;;;;;;;;;4980635;28;20026;-54
2023/05/16 04:55:07;;;;;;;198.23;11.25;;;;;;;;;;4981585;28;20025;-52
2023/05/16 04:57:32;;;;;;;260.33;14.07;;;;;;;;;;4978205;28;20025;-53
2023/05/16 04:59:58;;;;;;;181.07;11.57;;;;;;;;;;4979736;28;20061;-53
2023/05/16 05:02:23;;;;;;;156.07;10.60;;;;;;;;;;4979426;28;20910;-51
2023/05/16 05:04:48;;;;;;;191.07;12.43;;;;;;;;;;4978951;28;20435;-52
2023/05/16 05:07:14;;;;;;;227.18;13.10;;;;;;;;;;4979769;28;20054;-52
2023/05/16 05:09:39;;;;;;;264.00;14.23;;;;;;;;;;4979084;28;20033;-54
2023/05/16 05:12:06;;;;;;;286.30;14.20;;;;;;;;;;4975662;28;20438;-51
2023/05/16 05:14:31;;;;;;;268.95;13.82;;;;;;;;;;4978413;28;20030;-54
2023/05/16 05:16:56;;;;;;;271.97;14.43;;;;;;;;;;4967234;28;20041;-52
2023/05/16 05:19:22;;;;;;;245.80;13.30;;;;;;;;;;4980198;28;20274;-54
2023/05/16 05:21:47;;;;;;;266.10;14.17;;;;;;;;;;4981171;28;20294;-52
2023/05/16 05:24:12;;;;;;;291.30;14.37;;;;;;;;;;4979332;28;20261;-52
2023/05/16 05:26:37;;;;;;;225.98;13.20;;;;;;;;;;4980052;28;20257;-50
2023/05/16 05:29:02;;;;;;;192.90;12.00;;;;;;;;;;4979576;28;20886;-52
2023/05/16 05:31:28;;;;;;;216.77;12.20;;;;;;;;;;4979893;28;20716;-51
2023/05/16 05:33:53;;;;;;;246.20;13.73;;;;;;;;;;4979187;28;20781;-53
2023/05/16 05:36:18;;;;;;;152.35;11.00;;;;;;;;;;4981456;28;21118;-54
2023/05/16 05:38:44;;;;;;;160.77;10.23;;;;;;;;;;4980020;28;20033;-54
2023/05/16 05:41:10;;;;;;;232.82;12.75;;;;;;;;;;4977767;28;21049;-51
2023/05/16 05:43:36;;;;;;;258.65;12.90;;;;;;;;;;4978808;28;20049;-52
2023/05/16 05:46:01;;;;;;;208.05;11.90;;;;;;;;;;4979479;28;20120;-53
2023/05/16 05:48:28;;;;;;;209.50;11.95;;;;;;;;;;4982704;28;20036;-53
2023/05/16 05:50:54;;;;;;;206.00;11.80;;;;;;;;;;4982542;28;20037;-53
2023/05/16 05:53:19;;;;;;;139.98;10.23;;;;;;;;;;4981205;28;20026;-51
2023/05/16 05:55:44;;;;;;;170.63;11.45;;;;;;;;;;4980402;28;20034;-55
2023/05/16 05:58:09;;;;;;;183.40;11.35;;;;;;;;;;4982863;28;20025;-55
2023/05/16 06:00:35;;;;;;;192.47;11.70;;;;;;;;;;4982636;28;20034;-53
2023/05/16 06:03:00;;;;;;;229.85;12.65;;;;;;;;;;4982108;28;20630;-52
2023/05/16 06:05:25;;;;;;;178.33;11.63;;;;;;;;;;4981896;28;20078;-52
2023/05/16 06:07:51;;;;;;;159.07;10.73;;;;;;;;;;4979387;28;20305;-52
2023/05/16 06:10:16;;;;;;;223.63;12.93;;;;;;;;;;4983970;28;20291;-53
2023/05/16 06:12:41;;;;;;;161.27;10.98;;;;;;;;;;4984509;28;20383;-52
2023/05/16 06:15:07;;;;;;;194.60;11.93;;;;;;;;;;4985130;28;20026;-53
2023/05/16 06:17:32;;;;;;;173.73;10.88;;;;;;;;;;4984147;28;20266;-54
2023/05/16 06:19:57;;;;;;;177.47;10.93;;;;;;;;;;4986642;28;20098;-55
2023/05/16 06:22:23;;;;;;;176.27;11.37;;;;;;;;;;4985360;28;20265;-52
2023/05/16 06:24:48;;;;;;;192.88;11.45;;;;;;;;;;4985250;28;20466;-52
2023/05/16 06:27:13;;;;;;;124.50;9.40;;;;;;;;;;4987707;28;20035;-54
2023/05/16 06:29:38;;;;;;;207.38;11.82;;;;;;;;;;4986032;28;20264;-53
2023/05/16 06:32:04;;;;;;;164.80;9.03;;;;;;;;;;4983821;28;20038;-53
2023/05/16 06:34:30;;;;;;;167.77;10.25;;;;;;;;;;4984894;28;20257;-54
2023/05/16 06:36:56;;;;;;;183.70;10.60;;;;;;;;;;4985859;28;20057;-53
2023/05/16 06:39:21;;;;;;;163.83;9.87;;;;;;;;;;4986489;28;20243;-55
2023/05/16 06:41:46;;;;;;;189.13;11.43;;;;;;;;;;4984291;28;20323;-54
2023/05/16 06:44:11;;;;;;;168.23;10.10;;;;;;;;;;4983054;28;20083;-54
2023/05/16 06:46:37;;;;;;;163.73;10.57;;;;;;;;;;4985353;28;20117;-54
2023/05/16 06:49:02;;;;;;;184.10;10.60;;;;;;;;;;4985450;28;20079;-54
2023/05/16 06:51:27;;;;;;;155.82;9.82;;;;;;;;;;4984494;28;20042;-56
2023/05/16 06:53:53;;;;;;;211.43;11.73;;;;;;;;;;4984822;28;20813;-57
2023/05/16 06:56:18;;;;;;;169.02;9.88;;;;;;;;;;4982837;28;20269;-55
2023/05/16 06:58:44;;;;;;;171.23;10.23;;;;;;;;;;4985759;28;20037;-57
2023/05/16 07:01:09;;;;;;;160.13;9.47;;;;;;;;;;4986957;28;20023;-54
2023/05/16 07:03:35;;;;;;;172.30;10.40;;;;;;;;;;4986315;28;20033;-54
2023/05/16 07:06:00;;;;;;;180.95;10.57;;;;;;;;;;4985133;28;20038;-54
2023/05/16 07:08:25;;;;;;;174.73;10.63;;;;;;;;;;4985821;28;20628;-52
2023/05/16 07:10:51;;;;;;;171.53;10.13;;;;;;;;;;4985893;28;20050;-53
2023/05/16 07:13:16;;;;;;;156.03;9.87;;;;;;;;;;4985377;28;20390;-54
2023/05/16 07:15:41;;;;;;;189.80;10.45;;;;;;;;;;4983887;28;20266;-55
2023/05/16 07:18:06;;;;;;;181.07;11.10;;;;;;;;;;4984993;28;20090;-56
2023/05/16 07:20:32;;;;;;;172.30;10.93;;;;;;;;;;4984907;28;20052;-54
2023/05/16 07:22:58;;;;;;;198.10;10.20;;;;;;;;;;4983022;28;20631;-53
2023/05/16 07:25:23;;;;;;;146.80;9.25;;;;;;;;;;4983072;28;20136;-54
2023/05/16 07:27:48;;;;;;;165.07;9.50;;;;;;;;;;4985931;28;20525;-53
2023/05/16 07:30:14;;;;;;;149.83;9.70;;;;;;;;;;4970575;28;20025;-55
2023/05/16 07:32:39;;;;;;;147.73;9.30;;;;;;;;;;4983366;28;20022;-53
2023/05/16 07:35:05;;;;;;;208.63;10.75;;;;;;;;;;4983973;28;20080;-53
2023/05/16 07:37:30;;;;;;;164.98;9.30;;;;;;;;;;4985632;28;20050;-55
2023/05/16 07:39:55;;;;;;;141.07;8.98;;;;;;;;;;4986468;28;20044;-54
2023/05/16 07:42:21;;;;;;;166.95;9.63;;;;;;;;;;4984409;28;20080;-54
2023/05/16 07:44:46;;;;;;;154.45;9.43;;;;;;;;;;4985010;28;20022;-53
2023/05/16 07:47:12;;;;;;;155.73;9.40;;;;;;;;;;4982604;28;20034;-54
2023/05/16 07:49:37;;;;;;;160.40;9.57;;;;;;;;;;4983108;28;20023;-52
2023/05/16 07:52:02;;;;;;;143.80;8.50;;;;;;;;;;4985289;28;20927;-53
2023/05/16 07:54:27;;;;;;;171.05;9.48;;;;;;;;;;4986634;28;20563;-54
2023/05/16 07:56:53;;;;;;;137.70;8.33;;;;;;;;;;4983148;28;20084;-55
2023/05/16 07:59:18;;;;;;;126.50;7.95;;;;;;;;;;4984154;28;20051;-56
2023/05/16 08:01:43;;;;;;;198.83;11.23;;;;;;;;;;4984534;28;20061;-52
2023/05/16 08:04:09;;;;;;;166.63;9.60;;;;;;;;;;4983520;28;20741;-53
2023/05/16 08:06:34;;;;;;;181.23;9.97;;;;;;;;;;4983371;28;20037;-54
2023/05/16 08:08:59;;;;;;;164.20;8.87;;;;;;;;;;4984515;28;20056;-55
2023/05/16 08:11:25;;;;;;;162.10;9.73;;;;;;;;;;4984393;28;20113;-52
2023/05/16 08:13:50;;;;;;;202.52;10.90;;;;;;;;;;4982566;28;20651;-54
2023/05/16 08:16:15;;;;;;;136.43;8.53;;;;;;;;;;4983226;28;20400;-54
2023/05/16 08:18:41;;;;;;;202.98;11.13;;;;;;;;;;4983244;28;20250;-55
2023/05/16 08:21:07;;;;;;;168.48;10.02;;;;;;;;;;4983424;28;20056;-54
2023/05/16 08:23:33;;;;;;;157.23;9.55;;;;;;;;;;4984545;28;20034;-54
2023/05/16 08:25:58;;;;;;;180.90;10.77;;;;;;;;;;4983779;28;20046;-53
2023/05/16 08:28:23;;;;;;;174.98;9.82;;;;;;;;;;4984869;28;20040;-55
2023/05/16 08:30:49;;;;;;;174.48;9.95;;;;;;;;;;4983930;28;20700;-55
2023/05/16 08:33:14;;;;;;;139.10;8.60;;;;;;;;;;4985823;28;20099;-55
2023/05/16 08:35:43;;;;;;;164.25;9.52;;;;;;;;;;4983335;28;20034;-56
2023/05/16 08:38:08;;;;;;;161.70;9.68;;;;;;;;;;4983078;28;20018;-53
2023/05/16 08:40:34;;;;;;;175.03;8.87;;;;;;;;;;4982514;28;20030;-55
2023/05/16 08:42:59;;;;;;;165.43;9.35;;;;;;;;;;4984697;28;20678;-54
2023/05/16 08:45:24;;;;;;;142.45;9.05;;;;;;;;;;4981592;28;20511;-52
2023/05/16 08:47:52;;;;;;;200.23;10.68;;;;;;;;;;4981465;28;20022;-55
2023/05/16 08:50:17;;;;;;;141.93;8.73;;;;;;;;;;4983500;28;20574;-54
2023/05/16 08:52:43;;;;;;;161.60;9.03;;;;;;;;;;4982544;28;20686;-53
2023/05/16 08:55:15;;;;;;;180.25;9.35;;;;;;;;;;5040920;28;20387;-53
2023/05/16 08:57:41;;;;;;;157.15;9.05;;;;;;;;;;5034629;28;20712;-55
2023/05/16 09:00:10;;;;;;;166.90;9.40;;;;;;;;;;5028622;28;20669;-54
2023/05/16 09:02:39;;;;;;;173.20;8.73;;;;;;;;;;5030546;28;20020;-54
2023/05/16 09:05:05;;;;;;;150.95;8.45;;;;;;;;;;5030782;28;20155;-55
2023/05/16 09:07:30;;;;;;;126.47;7.57;;;;;;;;;;5030585;28;20047;-54
2023/05/16 09:09:55;;;;;;;111.97;7.87;;;;;;;;;;5029753;28;20021;-55
2023/05/16 09:12:21;;;;;;;183.07;9.70;;;;;;;;;;5029773;28;20038;-55
2023/05/16 09:14:46;;;;;;;154.45;8.45;;;;;;;;;;5032019;28;20108;-55
2023/05/16 09:17:11;;;;;;;139.70;8.20;;;;;;;;;;5030249;28;20036;-55
2023/05/16 09:19:43;;;;;;;149.27;8.35;;;;;;;;;;5032718;28;20351;-53
2023/05/16 09:22:12;;;;;;;171.10;8.93;;;;;;;;;;5031798;28;20496;-55
2023/05/16 09:24:38;;;;;;;180.10;9.73;;;;;;;;;;5028253;28;20554;-55
2023/05/16 09:27:07;;;;;;;180.75;9.60;;;;;;;;;;5029922;28;20046;-55
2023/05/16 09:29:33;;;;;;;179.38;9.00;;;;;;;;;;5031208;28;20068;-54
2023/05/16 09:32:04;;;;;;;192.00;9.65;;;;;;;;;;5027058;28;20037;-55
2023/05/16 09:34:29;;;;;;;157.80;8.13;;;;;;;;;;5032998;28;20511;-55
2023/05/16 09:36:54;;;;;;;164.57;8.70;;;;;;;;;;5033658;28;20086;-53
2023/05/16 09:39:19;;;;;;;169.02;9.35;;;;;;;;;;5029771;28;20471;-53
2023/05/16 09:41:45;;;;;;;188.10;10.13;;;;;;;;;;5032194;28;20124;-54
2023/05/16 09:44:10;;;;;;;156.52;8.85;;;;;;;;;;5030995;28;20026;-54
2023/05/16 09:46:36;;;;;;;161.73;9.70;;;;;;;;;;5027808;28;20034;-52
2023/05/16 09:49:02;;;;;;;196.00;10.27;;;;;;;;;;5029427;28;20033;-54
2023/05/16 09:51:27;;;;;;;138.50;9.73;;;;;;;;;;5030639;28;20091;-54
2023/05/16 09:53:53;;;;;;;212.27;11.27;;;;;;;;;;5031011;28;20021;-54
2023/05/16 09:56:18;;;;;;;174.65;10.23;;;;;;;;;;5029385;28;20034;-55
2023/05/16 09:58:44;;;;;;;169.30;11.10;;;;;;;;;;5031343;28;20021;-52
2023/05/16 10:01:11;;;;;;;185.52;10.02;;;;;;;;;;5031561;28;20479;-54
2023/05/16 10:03:37;;;;;;;180.73;10.15;;;;;;;;;;5029695;28;20024;-54
2023/05/16 10:06:03;;;;;;;167.77;10.75;;;;;;;;;;5019469;28;20088;-52
2023/05/16 10:08:30;;;;;;;191.05;11.55;;;;;;;;;;5015701;28;20034;-53
2023/05/16 10:10:55;;;;;;;193.82;11.13;;;;;;;;;;5014950;28;20140;-53
2023/05/16 10:13:22;;;;;;;177.88;10.95;;;;;;;;;;5019758;28;20422;-54
2023/05/16 10:15:48;;;;;;;123.53;8.43;;;;;;;;;;5012857;28;20530;-53
2023/05/16 10:18:13;;;;;;;156.85;9.70;;;;;;;;;;5016258;28;20661;-52
2023/05/16 10:20:41;;;;;;;177.63;10.77;;;;;;;;;;5017200;28;20022;-55
2023/05/16 10:23:07;;;;;;;197.50;10.15;;;;;;;;;;5015492;28;20029;-55
2023/05/16 10:25:35;;;;;;;172.13;10.32;;;;;;;;;;5019058;28;20117;-53
2023/05/16 10:28:01;;;;;;;216.60;10.95;;;;;;;;;;5016113;28;20718;-53
2023/05/16 10:30:27;;;;;;;153.98;8.43;;;;;;;;;;5013125;28;20277;-53
2023/05/16 10:32:52;;;;;;;181.57;10.18;;;;;;;;;;5013362;28;20779;-54
2023/05/16 10:35:18;;;;;;;163.10;8.93;;;;;;;;;;5018340;28;20033;-55
2023/05/16 10:37:44;;;;;;;169.82;10.00;;;;;;;;;;5016432;28;20009;-55
2023/05/16 10:40:10;;;;;;;200.60;11.70;;;;;;;;;;5011124;28;20025;-57
2023/05/16 10:42:35;;;;;;;192.10;9.77;;;;;;;;;;5016331;28;20017;-54
2023/05/16 10:45:16;;;;;;;162.43;9.40;;;;;;;;;;5018774;28;20021;-53
2023/05/16 10:47:49;;;;;;;140.10;7.97;;;;;;;;;;5011456;28;20042;-52
2023/05/16 10:50:29;;;;;;;174.23;10.10;;;;;;;;;;5010112;28;20260;-56
2023/05/16 10:52:54;;;;;;;171.90;9.50;;;;;;;;;;5011386;28;20073;-55
2023/05/16 10:55:19;;;;;;;166.60;9.38;;;;;;;;;;5012645;28;20601;-54
2023/05/16 10:57:45;;;;;;;144.50;8.10;;;;;;;;;;5017060;28;20411;-52
2023/05/16 11:00:20;;;;;;;173.23;10.10;;;;;;;;;;5013490;28;20027;-54
2023/05/16 11:02:45;;;;;;;200.02;9.60;;;;;;;;;;5012205;28;20077;-54
2023/05/16 11:05:12;;;;;;;175.83;10.13;;;;;;;;;;5016797;28;20455;-55
2023/05/16 11:07:37;;;;;;;203.32;10.27;;;;;;;;;;5015445;28;20370;-54
2023/05/16 11:10:03;;;;;;;186.27;9.70;;;;;;;;;;5016795;28;20762;-53
2023/05/16 11:12:45;;;;;;;173.50;9.82;;;;;;;;;;5013696;28;20572;-53
2023/05/16 11:15:27;;;;;;;176.55;9.85;;;;;;;;;;5014369;28;20395;-54
2023/05/16 11:18:11;;;;;;;185.18;10.32;;;;;;;;;;5017194;28;20013;-54
2023/05/16 11:20:37;;;;;;;185.23;10.52;;;;;;;;;;5013642;28;20756;-53
2023/05/16 11:23:17;;;;;;;239.13;12.07;;;;;;;;;;5017323;28;20029;-53
2023/05/16 11:26:02;;;;;;;196.68;10.43;;;;;;;;;;5009114;28;20030;-53
2023/05/16 11:28:27;;;;;;;182.35;10.65;;;;;;;;;;5015543;28;20517;-54
2023/05/16 11:30:55;;;;;;;198.85;10.77;;;;;;;;;;5017454;28;20038;-52
2023/05/16 11:33:21;;;;;;;186.38;9.02;;;;;;;;;;5015800;28;20056;-54
2023/05/16 11:36:00;;;;;;;159.25;9.30;;;;;;;;;;5014225;28;20108;-55
2023/05/16 11:38:25;;;;;;;169.98;9.55;;;;;;;;;;5018659;28;20743;-54
2023/05/16 11:40:51;;;;;;;134.35;8.68;;;;;;;;;;5014985;28;20463;-53
2023/05/16 11:43:19;;;;;;;172.53;9.60;;;;;;;;;;5012581;28;20383;-55
2023/05/16 11:45:45;;;;;;;145.93;8.57;;;;;;;;;;5017011;28;20261;-54
2023/05/16 11:48:10;;;;;;;184.65;9.00;;;;;;;;;;5012816;28;20064;-54
2023/05/16 11:50:36;;;;;;;207.93;10.70;;;;;;;;;;5017954;28;20121;-53
2023/05/16 11:53:01;;;;;;;195.27;9.38;;;;;;;;;;5014706;28;20326;-55
2023/05/16 11:55:31;;;;;;;170.20;7.82;;;;;;;;;;5014068;28;20029;-54
2023/05/16 11:57:57;;;;;;;170.05;8.73;;;;;;;;;;5014205;28;20696;-54
2023/05/16 12:00:24;;;;;;;174.98;8.98;;;;;;;;;;5016097;28;20032;-53
2023/05/16 12:02:50;;;;;;;198.63;9.63;;;;;;;;;;5011331;28;20049;-53
2023/05/16 12:05:19;;;;;;;161.23;8.75;;;;;;;;;;5015856;28;20116;-55
2023/05/16 12:07:45;;;;;;;156.90;8.05;;;;;;;;;;5017120;28;20024;-52
2023/05/16 12:10:11;;;;;;;197.02;9.68;;;;;;;;;;5013258;28;20029;-51
2023/05/16 12:12:38;;;;;;;185.15;8.93;;;;;;;;;;5014612;28;20025;-52
2023/05/16 12:15:05;;;;;;;229.98;9.95;;;;;;;;;;5013284;28;20024;-54
2023/05/16 12:17:31;;;;;;;175.25;8.48;;;;;;;;;;5013463;28;20037;-55
2023/05/16 12:19:56;;;;;;;197.48;9.40;;;;;;;;;;5016730;28;20021;-56
2023/05/16 12:22:24;;;;;;;152.70;6.80;;;;;;;;;;5016592;28;20034;-55
2023/05/16 12:24:50;;;;;;;162.93;7.95;;;;;;;;;;5015375;28;20045;-55
2023/05/16 12:27:25;;;;;;;164.05;8.45;;;;;;;;;;5012759;28;20149;-55
2023/05/16 12:29:50;;;;;;;175.10;8.57;;;;;;;;;;5015184;28;20025;-54
2023/05/16 12:32:19;;;;;;;164.10;8.35;;;;;;;;;;5013182;28;20042;-52
2023/05/16 12:34:51;;;;;;;193.38;9.23;;;;;;;;;;5012064;28;20035;-54
2023/05/16 12:37:16;;;;;;;;;;;;;;;;;;5013100;28;20034;-54
2023/05/16 12:39:41;;;;;;;207.00;9.87;;;;;;;;;;5014295;28;20372;-55
2023/05/16 12:42:08;;;;;;;201.73;9.02;;;;;;;;;;5015277;28;20088;-54
2023/05/16 12:44:34;;;;;;;197.10;8.75;;;;;;;;;;5015497;28;20033;-55
2023/05/16 12:46:59;;;;;;;182.60;9.40;;;;;;;;;;5013361;28;20104;-53
2023/05/16 12:49:25;;;;;;;174.20;8.10;;;;;;;;;;5014060;28;20022;-54
2023/05/16 12:51:51;;;;;;;242.32;11.27;;;;;;;;;;5009559;28;20045;-57
2023/05/16 12:54:17;;;;;;;167.25;8.50;;;;;;;;;;5016003;28;20080;-55
2023/05/16 12:56:43;;;;;;;166.68;8.65;;;;;;;;;;5015635;28;20715;-52
2023/05/16 12:59:09;;;;;;;227.18;10.93;;;;;;;;;;5016747;28;20112;-55
2023/05/16 13:01:34;;;;;;;209.00;9.75;;;;;;;;;;5012410;28;20100;-53
2023/05/16 13:04:00;;;;;;;214.98;10.40;;;;;;;;;;5015583;28;20030;-54
2023/05/16 13:06:26;;;;;;;161.73;8.80;;;;;;;;;;5013251;28;20068;-53
2023/05/16 13:08:51;;;;;;;146.25;7.88;;;;;;;;;;5014276;28;20022;-55
2023/05/16 13:11:17;;;;;;;186.15;9.05;;;;;;;;;;5017249;28;20033;-54
2023/05/16 13:13:43;;;;;;;253.90;11.65;;;;;;;;;;5012022;28;20033;-53
2023/05/16 13:16:09;;;;;;;219.50;10.53;;;;;;;;;;5012776;28;20875;-52
2023/05/16 13:18:35;;;;;;;181.60;8.93;;;;;;;;;;5011994;28;20331;-55
2023/05/16 13:21:00;;;;;;;161.77;8.65;;;;;;;;;;5011731;28;20044;-54
2023/05/16 13:23:25;;;;;;;193.65;9.45;;;;;;;;;;5011250;28;20026;-54
2023/05/16 13:25:52;;;;;;;165.65;7.63;;;;;;;;;;5013342;28;20047;-55
2023/05/16 13:28:17;;;;;;;160.70;8.07;;;;;;;;;;5011435;28;20053;-54
2023/05/16 13:30:42;;;;;;;175.68;8.70;;;;;;;;;;5014788;28;20126;-55
2023/05/16 13:33:07;;;;;;;196.93;9.47;;;;;;;;;;5013113;28;20028;-53
2023/05/16 13:35:33;;;;;;;172.93;8.37;;;;;;;;;;5010609;28;20262;-53
2023/05/16 13:37:58;;;;;;;193.23;8.43;;;;;;;;;;5013384;28;20017;-55
2023/05/16 13:40:23;;;;;;;169.37;8.63;;;;;;;;;;5013762;28;20120;-55
2023/05/16 13:42:48;;;;;;;153.37;7.70;;;;;;;;;;5018184;28;20721;-52
2023/05/16 13:45:14;;;;;;;175.70;8.90;;;;;;;;;;5020803;28;20843;-54
2023/05/16 13:47:39;;;;;;;172.93;8.27;;;;;;;;;;5012303;28;20268;-51
2023/05/16 13:50:08;;;;;;;176.57;8.57;;;;;;;;;;5013276;28;20628;-54
2023/05/16 13:52:33;;;;;;;162.20;8.43;;;;;;;;;;5015528;28;20369;-53
2023/05/16 13:54:58;;;;;;;202.82;9.18;;;;;;;;;;5019560;28;20355;-55
2023/05/16 13:57:23;;;;;;;146.13;8.07;;;;;;;;;;5017229;28;20029;-54
2023/05/16 13:59:49;;;;;;;158.25;7.82;;;;;;;;;;5018552;28;20094;-55
2023/05/16 14:02:14;;;;;;;194.03;9.07;;;;;;;;;;5017191;28;20034;-56
2023/05/16 14:04:39;;;;;;;188.65;8.55;;;;;;;;;;5013658;28;20261;-53